createdAt,value
2018-03-06T00:00:55.036Z,60.00
2018-03-06T00:03:21.259Z,59.80
2018-03-06T00:05:47.548Z,59.60
2018-03-06T00:08:14.536Z,60.10
2018-03-06T00:10:41.551Z,60.10
2018-03-06T00:13:07.749Z,60.10
2018-03-06T00:15:33.969Z,60.20
2018-03-06T00:18:00.201Z,59.90
2018-03-06T00:20:27.230Z,60.20
2018-03-06T00:22:53.454Z,60.10
2018-03-06T00:25:19.684Z,59.90
2018-03-06T00:27:46.581Z,60.10
2018-03-06T00:30:12.809Z,60.90
2018-03-06T00:32:39.008Z,61.60
2018-03-06T00:35:05.519Z,62.00
2018-03-06T00:37:31.732Z,63.00
2018-03-06T00:39:57.943Z,63.70
2018-03-06T00:42:24.348Z,64.00
2018-03-06T00:44:51.284Z,63.60
2018-03-06T00:47:17.509Z,63.50
2018-03-06T00:49:43.756Z,63.30
2018-03-06T00:52:09.980Z,63.40
2018-03-06T00:54:36.170Z,63.00
2018-03-06T00:57:02.456Z,63.10
2018-03-06T00:59:28.684Z,62.80
2018-03-06T01:01:54.932Z,63.00
2018-03-06T01:04:21.134Z,62.90
2018-03-06T01:06:48.308Z,63.10
2018-03-06T01:09:14.516Z,63.10
2018-03-06T01:11:40.741Z,63.00
2018-03-06T01:14:07.843Z,63.00
2018-03-06T01:16:34.965Z,62.90
2018-03-06T01:19:01.203Z,62.90
2018-03-06T01:21:27.411Z,63.10
2018-03-06T01:23:53.704Z,63.40
2018-03-06T01:26:19.930Z,63.50
2018-03-06T01:28:46.131Z,63.10
2018-03-06T01:31:12.552Z,64.00
2018-03-06T01:33:39.544Z,63.00
2018-03-06T01:36:05.726Z,63.00
2018-03-06T01:38:32.137Z,62.80
2018-03-06T01:40:58.308Z,63.20
2018-03-06T01:43:24.579Z,63.30
2018-03-06T01:45:51.488Z,63.00
2018-03-06T01:48:17.748Z,63.00
2018-03-06T01:50:43.936Z,62.80
2018-03-06T01:53:10.184Z,63.10
2018-03-06T01:55:36.400Z,63.60
2018-03-06T01:58:03.316Z,63.00
2018-03-06T02:00:29.516Z,63.00
2018-03-06T02:02:55.839Z,63.20
2018-03-06T02:05:22.932Z,63.10
2018-03-06T02:07:49.125Z,63.10
2018-03-06T02:10:15.448Z,63.10
2018-03-06T02:12:41.661Z,63.20
2018-03-06T02:15:07.884Z,63.30
2018-03-06T02:17:34.077Z,63.30
2018-03-06T02:20:00.352Z,63.40
2018-03-06T02:22:27.316Z,63.90
2018-03-06T02:24:53.598Z,63.90
2018-03-06T02:27:19.847Z,64.10
2018-03-06T02:29:46.065Z,63.90
2018-03-06T02:32:12.313Z,63.70
2018-03-06T02:34:38.587Z,63.10
2018-03-06T02:37:05.757Z,63.60
2018-03-06T02:39:32.006Z,63.50
2018-03-06T02:41:58.410Z,64.20
2018-03-06T02:44:24.594Z,64.60
2018-03-06T02:46:51.523Z,66.10
2018-03-06T02:49:17.904Z,65.70
2018-03-06T02:51:44.088Z,64.30
2018-03-06T02:54:10.316Z,63.80
2018-03-06T02:56:36.536Z,64.10
2018-03-06T02:59:02.734Z,63.60
2018-03-06T03:01:28.932Z,63.80
2018-03-06T03:03:55.189Z,64.60
2018-03-06T03:06:21.420Z,63.80
2018-03-06T03:08:47.624Z,63.30
2018-03-06T03:11:13.911Z,63.20
2018-03-06T03:13:40.098Z,64.40
2018-03-06T03:16:06.352Z,63.90
2018-03-06T03:18:33.280Z,63.80
2018-03-06T03:20:59.776Z,63.80
2018-03-06T03:23:25.997Z,64.20
2018-03-06T03:25:52.242Z,63.90
2018-03-06T03:28:18.567Z,63.50
2018-03-06T03:30:45.559Z,63.50
2018-03-06T03:33:11.761Z,63.50
2018-03-06T03:35:38.095Z,63.50
2018-03-06T03:38:04.302Z,63.30
2018-03-06T03:40:30.494Z,64.20
2018-03-06T03:42:56.907Z,63.70
2018-03-06T03:45:23.268Z,64.50
2018-03-06T03:47:50.279Z,64.00
2018-03-06T03:50:16.495Z,64.00
2018-03-06T03:52:43.527Z,64.40
2018-03-06T03:55:09.739Z,64.40
2018-03-06T03:57:35.968Z,64.70
2018-03-06T04:00:02.225Z,64.80
2018-03-06T04:02:28.443Z,65.60
2018-03-06T04:04:54.652Z,65.70
2018-03-06T04:07:21.675Z,65.70
2018-03-06T04:09:47.867Z,65.70
2018-03-06T04:12:14.083Z,65.70
2018-03-06T04:14:40.288Z,65.60
2018-03-06T04:17:06.499Z,65.60
2018-03-06T04:19:33.555Z,65.60
2018-03-06T04:21:59.761Z,65.50
2018-03-06T04:24:26.366Z,66.10
2018-03-06T04:26:52.602Z,66.50
2018-03-06T04:29:18.820Z,66.70
2018-03-06T04:31:45.240Z,66.60
2018-03-06T04:34:11.448Z,66.00
2018-03-06T04:36:37.662Z,66.20
2018-03-06T04:39:04.170Z,65.80
2018-03-06T04:41:30.361Z,66.20
2018-03-06T04:43:56.623Z,66.30
2018-03-06T04:46:22.980Z,66.00
2018-03-06T04:48:49.198Z,66.50
2018-03-06T04:51:15.597Z,66.50
2018-03-06T04:53:41.951Z,66.30
2018-03-06T04:56:08.188Z,66.40
2018-03-06T04:58:35.152Z,66.40
2018-03-06T05:01:02.140Z,66.30
2018-03-06T05:03:28.983Z,66.30
2018-03-06T05:05:55.810Z,66.70
2018-03-06T05:08:22.746Z,66.60
2018-03-06T05:10:48.966Z,66.70
2018-03-06T05:13:15.302Z,66.70
2018-03-06T05:15:42.504Z,66.40
2018-03-06T05:18:08.744Z,66.40
2018-03-06T05:20:34.976Z,66.70
2018-03-06T05:23:01.268Z,66.20
2018-03-06T05:25:27.586Z,66.80
2018-03-06T05:27:53.821Z,66.80
2018-03-06T05:30:20.041Z,67.00
2018-03-06T05:32:47.064Z,66.70
2018-03-06T05:35:13.273Z,66.80
2018-03-06T05:37:40.601Z,66.80
2018-03-06T05:40:06.780Z,66.70
2018-03-06T05:42:33.740Z,67.00
2018-03-06T05:45:00.774Z,66.80
2018-03-06T05:47:27.126Z,66.80
2018-03-06T05:49:53.397Z,67.30
2018-03-06T05:52:19.660Z,66.80
2018-03-06T05:54:46.176Z,66.80
2018-03-06T05:57:12.409Z,66.50
2018-03-06T05:59:39.353Z,66.50
2018-03-06T06:02:05.576Z,66.50
2018-03-06T06:04:31.968Z,66.90
2018-03-06T06:06:58.221Z,66.70
2018-03-06T06:09:24.447Z,66.80
2018-03-06T06:11:51.652Z,66.50
2018-03-06T06:14:17.841Z,66.50
2018-03-06T06:16:44.781Z,66.50
2018-03-06T06:19:11.110Z,66.50
2018-03-06T06:21:37.341Z,66.70
2018-03-06T06:24:03.576Z,66.30
2018-03-06T06:26:29.772Z,66.50
2018-03-06T06:28:58.768Z,66.30
2018-03-06T06:31:25.857Z,67.20
2018-03-06T06:33:52.051Z,66.20
2018-03-06T06:36:18.248Z,66.50
2018-03-06T06:38:44.552Z,66.50
2018-03-06T06:41:11.748Z,66.10
2018-03-06T06:43:37.942Z,66.10
2018-03-06T06:46:04.204Z,65.90
2018-03-06T06:48:30.416Z,66.00
2018-03-06T06:50:56.575Z,66.00
2018-03-06T06:53:22.991Z,66.10
2018-03-06T06:55:49.164Z,66.70
2018-03-06T06:58:15.369Z,66.60
2018-03-06T07:00:41.833Z,65.80
2018-03-06T07:03:08.061Z,63.70
2018-03-06T07:05:34.336Z,62.50
2018-03-06T07:08:00.514Z,61.20
2018-03-06T07:10:26.879Z,60.70
2018-03-06T07:12:53.056Z,59.80
2018-03-06T07:15:19.241Z,58.40
2018-03-06T07:17:45.476Z,57.80
2018-03-06T07:20:11.682Z,59.30
2018-03-06T07:22:37.918Z,59.70
2018-03-06T07:25:04.208Z,59.70
2018-03-06T07:27:30.448Z,60.00
2018-03-06T07:29:56.696Z,60.10
2018-03-06T07:32:23.008Z,59.90
2018-03-06T07:34:49.263Z,59.70
2018-03-06T07:37:15.461Z,59.60
2018-03-06T07:39:41.896Z,59.10
2018-03-06T07:42:08.104Z,59.20
2018-03-06T07:44:34.276Z,60.00
2018-03-06T07:47:00.693Z,59.80
2018-03-06T07:49:26.960Z,59.60
2018-03-06T07:51:53.179Z,58.80
2018-03-06T07:54:19.488Z,58.80
2018-03-06T07:56:45.754Z,58.40
2018-03-06T07:59:11.964Z,58.40
2018-03-06T08:01:38.268Z,58.50
2018-03-06T08:04:04.479Z,57.60
2018-03-06T08:06:30.758Z,58.20
2018-03-06T08:08:57.602Z,57.90
2018-03-06T08:11:23.783Z,57.80
2018-03-06T08:13:50.732Z,57.40
2018-03-06T08:16:17.704Z,57.40
2018-03-06T08:18:44.826Z,57.50
2018-03-06T08:21:11.020Z,57.50
2018-03-06T08:23:37.240Z,57.60
2018-03-06T08:26:03.637Z,56.60
2018-03-06T08:28:29.903Z,56.70
2018-03-06T08:30:56.037Z,56.30
2018-03-06T08:33:22.256Z,56.00
2018-03-06T08:35:48.464Z,55.60
2018-03-06T08:38:14.708Z,55.30
2018-03-06T08:40:41.621Z,55.10
2018-03-06T08:43:07.983Z,54.80
2018-03-06T08:45:34.983Z,54.30
2018-03-06T08:48:01.224Z,54.40
2018-03-06T08:50:27.661Z,53.80
2018-03-06T08:52:53.850Z,53.40
2018-03-06T08:55:20.044Z,53.60
2018-03-06T08:57:46.418Z,53.60
2018-03-06T09:00:12.575Z,53.70
2018-03-06T09:02:38.769Z,53.30
2018-03-06T09:05:05.088Z,52.80
2018-03-06T09:07:31.317Z,52.80
2018-03-06T09:09:57.505Z,52.30
2018-03-06T09:12:23.806Z,51.60
2018-03-06T09:14:50.851Z,50.70
2018-03-06T09:17:17.117Z,50.70
2018-03-06T09:19:43.288Z,51.10
2018-03-06T09:22:10.379Z,50.50
2018-03-06T09:24:36.658Z,50.40
2018-03-06T09:27:02.894Z,49.70
2018-03-06T09:29:29.812Z,50.00
2018-03-06T09:31:56.030Z,49.90
2018-03-06T09:34:22.253Z,48.50
2018-03-06T09:36:48.592Z,48.00
2018-03-06T09:39:14.799Z,48.00
2018-03-06T09:41:41.018Z,47.30
2018-03-06T09:44:07.203Z,47.20
2018-03-06T09:46:33.426Z,47.30
2018-03-06T09:48:59.607Z,46.80
2018-03-06T09:51:26.539Z,46.40
2018-03-06T09:53:53.601Z,46.60
2018-03-06T09:56:20.557Z,46.00
2018-03-06T09:58:46.734Z,46.00
2018-03-06T10:01:13.033Z,45.90
2018-03-06T10:03:39.191Z,45.90
2018-03-06T10:06:05.371Z,44.60
2018-03-06T10:08:31.646Z,45.50
2018-03-06T10:10:57.829Z,45.20
2018-03-06T10:13:24.017Z,44.70
2018-03-06T10:15:50.231Z,44.20
2018-03-06T10:18:16.405Z,43.90
2018-03-06T10:20:42.583Z,43.60
2018-03-06T10:23:08.860Z,43.80
2018-03-06T10:25:35.207Z,43.20
2018-03-06T10:28:01.423Z,43.20
2018-03-06T10:30:27.620Z,42.70
2018-03-06T10:32:54.894Z,43.30
2018-03-06T10:35:21.820Z,42.00
2018-03-06T10:37:48.016Z,42.00
2018-03-06T10:40:14.297Z,42.10
2018-03-06T10:42:40.491Z,42.10
2018-03-06T10:45:06.734Z,42.20
2018-03-06T10:47:32.949Z,42.30
2018-03-06T10:49:59.153Z,41.60
2018-03-06T10:52:25.341Z,42.40
2018-03-06T10:54:52.381Z,39.40
2018-03-06T10:57:18.577Z,39.40
2018-03-06T10:59:44.827Z,40.80
2018-03-06T11:02:13.971Z,39.70
2018-03-06T11:04:40.166Z,39.60
2018-03-06T11:07:06.466Z,38.80
2018-03-06T11:09:32.629Z,39.10
2018-03-06T11:11:58.862Z,38.80
2018-03-06T11:14:25.102Z,39.20
2018-03-06T11:16:51.288Z,39.10
2018-03-06T11:19:17.480Z,38.40
2018-03-06T11:21:44.638Z,38.30
2018-03-06T11:24:11.619Z,37.80
2018-03-06T11:26:37.839Z,37.80
2018-03-06T11:29:04.116Z,37.80
2018-03-06T11:31:30.302Z,36.70
2018-03-06T11:33:56.482Z,36.70
2018-03-06T11:36:22.764Z,36.50
2018-03-06T11:38:49.032Z,36.50
2018-03-06T11:41:16.001Z,36.10
2018-03-06T11:43:42.922Z,36.40
2018-03-06T11:46:09.967Z,36.40
2018-03-06T11:48:36.168Z,37.00
2018-03-06T11:51:03.083Z,35.40
2018-03-06T11:53:29.268Z,35.30
2018-03-06T11:55:55.532Z,35.70
2018-03-06T11:58:21.714Z,35.40
2018-03-06T12:00:47.883Z,35.40
2018-03-06T12:03:15.014Z,35.30
2018-03-06T12:05:41.229Z,35.20
2018-03-06T12:08:07.447Z,34.80
2018-03-06T12:10:33.771Z,33.40
2018-03-06T12:13:00.722Z,34.00
2018-03-06T12:15:27.633Z,33.40
2018-03-06T12:17:53.801Z,34.20
2018-03-06T12:20:20.034Z,33.70
2018-03-06T12:22:46.224Z,33.90
2018-03-06T12:25:12.461Z,32.10
2018-03-06T12:27:39.645Z,32.10
2018-03-06T12:30:05.918Z,32.10
2018-03-06T12:32:32.100Z,32.10
2018-03-06T12:34:58.672Z,32.40
2018-03-06T12:37:24.883Z,31.80
2018-03-06T12:39:51.881Z,31.80
2018-03-06T12:42:18.680Z,31.70
2018-03-06T12:44:44.964Z,30.80
2018-03-06T12:47:11.155Z,30.20
2018-03-06T12:49:37.343Z,30.50
2018-03-06T12:52:03.652Z,30.70
2018-03-06T12:54:29.824Z,30.00
2018-03-06T12:56:56.020Z,30.90
2018-03-06T12:59:22.300Z,29.70
2018-03-06T13:01:48.544Z,29.10
2018-03-06T13:04:14.727Z,29.00
2018-03-06T13:06:41.140Z,29.90
2018-03-06T13:09:07.350Z,29.60
2018-03-06T13:11:34.371Z,29.40
2018-03-06T13:14:00.709Z,29.40
2018-03-06T13:16:26.909Z,29.30
2018-03-06T13:18:53.205Z,28.70
2018-03-06T13:21:19.590Z,28.80
2018-03-06T13:23:45.836Z,29.00
2018-03-06T13:26:12.045Z,29.00
2018-03-06T13:28:39.032Z,29.30
2018-03-06T13:31:06.098Z,28.10
2018-03-06T13:33:32.300Z,28.10
2018-03-06T13:35:58.484Z,28.70
2018-03-06T13:38:24.796Z,29.30
2018-03-06T13:40:51.736Z,28.90
2018-03-06T13:43:17.928Z,28.80
2018-03-06T13:45:44.250Z,29.10
2018-03-06T13:48:10.508Z,29.30
2018-03-06T13:50:36.678Z,28.40
2018-03-06T13:53:02.969Z,29.40
2018-03-06T13:55:30.077Z,29.90
2018-03-06T13:57:56.289Z,29.80
2018-03-06T14:00:22.640Z,30.20
2018-03-06T14:02:48.901Z,29.30
2018-03-06T14:05:15.178Z,29.70
2018-03-06T14:07:41.368Z,28.70
2018-03-06T14:10:07.737Z,28.60
2018-03-06T14:12:33.962Z,28.60
2018-03-06T14:15:01.054Z,28.30
2018-03-06T14:17:27.569Z,29.00
2018-03-06T14:19:53.850Z,28.60
2018-03-06T14:22:20.020Z,28.60
2018-03-06T14:24:48.332Z,29.00
2018-03-06T14:27:14.801Z,28.80
2018-03-06T14:29:41.000Z,28.70
2018-03-06T14:32:07.932Z,28.70
2018-03-06T14:34:34.116Z,28.70
2018-03-06T14:37:00.389Z,28.60
2018-03-06T14:39:26.592Z,28.90
2018-03-06T14:41:52.800Z,29.00
2018-03-06T14:44:19.100Z,28.50
2018-03-06T14:46:45.330Z,28.60
2018-03-06T14:49:11.517Z,28.90
2018-03-06T14:51:37.797Z,29.10
2018-03-06T14:54:03.987Z,28.20
2018-03-06T14:56:30.182Z,27.60
2018-03-06T14:58:57.544Z,27.90
2018-03-06T15:01:23.740Z,27.80
2018-03-06T15:03:49.978Z,28.10
2018-03-06T15:06:16.259Z,28.30
2018-03-06T15:08:43.630Z,28.20
2018-03-06T15:11:09.855Z,28.40
2018-03-06T15:13:36.813Z,29.20
2018-03-06T15:16:03.090Z,29.20
2018-03-06T15:18:29.432Z,29.00
2018-03-06T15:20:55.620Z,29.10
2018-03-06T15:23:24.773Z,28.70
2018-03-06T15:25:54.726Z,28.70
2018-03-06T15:28:20.996Z,29.40
2018-03-06T15:30:47.518Z,29.30
2018-03-06T15:33:13.714Z,28.70
2018-03-06T15:35:40.673Z,28.90
2018-03-06T15:38:07.620Z,29.40
2018-03-06T15:40:34.733Z,29.20
2018-03-06T15:43:00.951Z,29.20
2018-03-06T15:45:27.207Z,29.00
2018-03-06T15:47:53.392Z,29.50
2018-03-06T15:50:19.662Z,29.40
2018-03-06T15:52:45.918Z,29.90
2018-03-06T15:55:12.148Z,30.00
2018-03-06T15:57:39.114Z,29.90
2018-03-06T16:00:05.320Z,29.90
2018-03-06T16:02:31.543Z,30.10
2018-03-06T16:04:57.752Z,30.20
2018-03-06T16:07:23.993Z,30.00
2018-03-06T16:09:50.182Z,30.90
2018-03-06T16:12:16.396Z,30.70
2018-03-06T16:14:42.581Z,31.20
2018-03-06T16:17:09.560Z,31.60
2018-03-06T16:19:35.871Z,31.50
2018-03-06T16:22:02.079Z,31.40
2018-03-06T16:24:28.272Z,32.20
2018-03-06T16:26:54.628Z,32.00
2018-03-06T16:29:20.843Z,32.90
2018-03-06T16:31:47.769Z,33.10
2018-03-06T16:34:14.131Z,33.20
2018-03-06T16:36:40.358Z,33.70
2018-03-06T16:39:06.569Z,34.10
2018-03-06T16:41:32.811Z,34.00
2018-03-06T16:43:59.056Z,34.00
2018-03-06T16:46:25.235Z,33.90
2018-03-06T16:48:52.165Z,33.90
2018-03-06T16:51:19.560Z,33.90
2018-03-06T16:53:45.782Z,34.30
2018-03-06T16:56:11.943Z,34.80
2018-03-06T16:58:38.165Z,34.90
2018-03-06T17:01:07.973Z,35.20
2018-03-06T17:03:34.189Z,35.20
2018-03-06T17:06:00.380Z,35.70
2018-03-06T17:08:26.588Z,36.10
2018-03-06T17:10:54.060Z,36.40
2018-03-06T17:13:21.059Z,37.80
2018-03-06T17:15:47.270Z,37.80
2018-03-06T17:18:13.546Z,37.70
2018-03-06T17:20:39.765Z,38.00
2018-03-06T17:23:05.940Z,38.20
2018-03-06T17:25:32.931Z,38.90
2018-03-06T17:27:59.193Z,39.00
2018-03-06T17:30:25.471Z,38.90
2018-03-06T17:32:51.692Z,39.00
2018-03-06T17:35:17.988Z,40.20
2018-03-06T17:37:44.224Z,40.50
2018-03-06T17:40:10.412Z,40.00
2018-03-06T17:42:36.723Z,40.40
2018-03-06T17:45:02.950Z,40.70
2018-03-06T17:47:29.175Z,41.30
2018-03-06T17:49:56.361Z,42.00
2018-03-06T17:52:22.595Z,42.00
2018-03-06T17:54:48.766Z,42.60
2018-03-06T17:57:15.233Z,43.00
2018-03-06T17:59:41.457Z,42.90
2018-03-06T18:02:07.753Z,42.90
2018-03-06T18:04:33.893Z,42.90
2018-03-06T18:07:00.146Z,42.90
2018-03-06T18:09:26.400Z,42.80
2018-03-06T18:11:52.611Z,42.80
2018-03-06T18:14:19.729Z,43.40
2018-03-06T18:16:45.907Z,43.30
2018-03-06T18:19:12.137Z,43.80
2018-03-06T18:21:39.187Z,44.40
2018-03-06T18:24:05.429Z,45.00
2018-03-06T18:26:32.118Z,44.60
2018-03-06T18:28:59.069Z,44.90
2018-03-06T18:31:25.362Z,45.50
2018-03-06T18:33:51.592Z,45.10
2018-03-06T18:36:17.788Z,45.20
2018-03-06T18:38:44.824Z,45.80
2018-03-06T18:41:11.009Z,45.80
2018-03-06T18:43:37.224Z,45.90
2018-03-06T18:46:03.508Z,46.30
2018-03-06T18:48:29.717Z,46.70
2018-03-06T18:51:08.309Z,46.90
2018-03-06T18:53:34.536Z,46.90
2018-03-06T18:56:00.781Z,46.90
2018-03-06T18:58:26.976Z,47.50
2018-03-06T19:01:05.330Z,47.20
2018-03-06T19:03:44.143Z,47.30
2018-03-06T19:06:22.679Z,47.50
2018-03-06T19:08:49.099Z,47.70
2018-03-06T19:11:15.293Z,47.80
2018-03-06T19:13:41.500Z,48.00
2018-03-06T19:16:08.806Z,48.20
2018-03-06T19:18:35.216Z,48.10
2018-03-06T19:21:01.438Z,48.00
2018-03-06T19:23:27.667Z,48.30
2018-03-06T19:25:54.869Z,48.50
2018-03-06T19:28:21.093Z,48.50
2018-03-06T19:30:47.305Z,48.50
2018-03-06T19:33:13.494Z,48.60
2018-03-06T19:35:39.710Z,48.90
2018-03-06T19:38:06.710Z,49.10
2018-03-06T19:40:32.923Z,49.10
2018-03-06T19:42:59.387Z,49.20
2018-03-06T19:45:25.598Z,49.50
2018-03-06T19:47:52.510Z,49.40
2018-03-06T19:50:18.893Z,49.40
2018-03-06T19:52:45.946Z,49.90
2018-03-06T19:55:12.137Z,49.90
2018-03-06T19:57:38.346Z,49.70
2018-03-06T20:00:05.236Z,49.90
2018-03-06T20:02:31.420Z,49.70
2018-03-06T20:04:58.425Z,50.10
2018-03-06T20:07:24.694Z,50.00
2018-03-06T20:09:51.080Z,50.30
2018-03-06T20:12:17.269Z,50.30
2018-03-06T20:14:49.878Z,50.40
2018-03-06T20:17:16.066Z,50.40
2018-03-06T20:19:42.272Z,50.50
2018-03-06T20:22:08.891Z,51.10
2018-03-06T20:24:41.096Z,51.00
2018-03-06T20:27:07.417Z,51.00
2018-03-06T20:29:34.900Z,51.00
2018-03-06T20:32:07.217Z,51.00
2018-03-06T20:34:35.240Z,51.00
2018-03-06T20:37:01.522Z,51.70
2018-03-06T20:39:33.878Z,50.90
2018-03-06T20:42:00.225Z,51.00
2018-03-06T20:44:27.337Z,51.00
2018-03-06T20:46:59.659Z,50.90
2018-03-06T20:49:25.857Z,50.90
2018-03-06T20:51:52.898Z,51.10
2018-03-06T20:54:25.104Z,51.00
2018-03-06T20:56:51.441Z,51.00
2018-03-06T20:59:18.364Z,51.90
2018-03-06T21:01:44.570Z,51.00
2018-03-06T21:04:10.760Z,50.80
2018-03-06T21:06:37.100Z,51.10
2018-03-06T21:09:03.322Z,51.10
2018-03-06T21:11:29.524Z,51.20
2018-03-06T21:13:55.719Z,50.80
2018-03-06T21:16:21.933Z,51.10
2018-03-06T21:18:48.112Z,51.00
2018-03-06T21:21:14.354Z,51.20
2018-03-06T21:23:40.528Z,51.30
2018-03-06T21:26:06.754Z,51.30
2018-03-06T21:28:33.017Z,51.30
2018-03-06T21:30:59.257Z,51.30
2018-03-06T21:33:25.429Z,51.30
2018-03-06T21:35:51.841Z,51.40
2018-03-06T21:38:18.066Z,51.50
2018-03-06T21:40:45.007Z,52.30
2018-03-06T21:43:11.980Z,53.10
2018-03-06T21:45:38.951Z,52.30
2018-03-06T21:48:05.162Z,52.30
2018-03-06T21:50:31.396Z,52.70
2018-03-06T21:52:57.782Z,52.70
2018-03-06T21:55:23.978Z,52.90
2018-03-06T21:57:50.269Z,52.90
2018-03-06T22:00:16.538Z,52.90
2018-03-06T22:02:42.749Z,53.20
2018-03-06T22:05:08.970Z,53.10
2018-03-06T22:07:35.214Z,53.00
2018-03-06T22:10:01.568Z,53.10
2018-03-06T22:12:27.761Z,53.30
2018-03-06T22:14:53.959Z,53.50
2018-03-06T22:17:20.221Z,53.50
2018-03-06T22:19:46.814Z,53.70
2018-03-06T22:22:13.830Z,54.20
2018-03-06T22:24:40.127Z,54.20
2018-03-06T22:27:07.077Z,54.60
2018-03-06T22:29:34.042Z,55.50
2018-03-06T22:32:01.007Z,54.90
2018-03-06T22:34:27.384Z,54.90
2018-03-06T22:36:53.622Z,55.40
2018-03-06T22:39:19.821Z,55.80
2018-03-06T22:41:46.821Z,56.30
2018-03-06T22:44:13.064Z,56.30
2018-03-06T22:46:39.279Z,56.40
2018-03-06T22:49:05.543Z,57.00
2018-03-06T22:51:31.826Z,57.30
2018-03-06T22:53:58.017Z,57.20
2018-03-06T22:56:24.349Z,57.50
2018-03-06T22:58:50.550Z,58.00
2018-03-06T23:01:16.776Z,58.40
2018-03-06T23:03:43.024Z,58.60
2018-03-06T23:06:09.276Z,58.90
2018-03-06T23:08:35.541Z,58.90
2018-03-06T23:11:02.789Z,59.10
2018-03-06T23:13:29.211Z,59.30
2018-03-06T23:15:55.437Z,59.40
2018-03-06T23:18:21.683Z,59.50
2018-03-06T23:20:48.125Z,59.30
2018-03-06T23:23:14.366Z,60.00
2018-03-06T23:25:40.638Z,60.00
2018-03-06T23:28:07.076Z,60.00
2018-03-06T23:30:33.271Z,60.10
2018-03-06T23:32:59.507Z,60.60
2018-03-06T23:35:25.838Z,61.30
2018-03-06T23:37:52.132Z,61.30
2018-03-06T23:40:18.393Z,61.40
2018-03-06T23:42:44.620Z,61.40
2018-03-06T23:45:10.973Z,61.80
2018-03-06T23:47:37.189Z,61.40
2018-03-06T23:50:03.382Z,61.40
2018-03-06T23:52:31.172Z,62.10
2018-03-06T23:54:57.393Z,62.00
2018-03-06T23:57:23.614Z,62.50
2018-03-06T23:59:49.884Z,62.50
